Time;durP1;ratioP1;P1;durP2;ratioP2;P2;SDS_P1;SDS_P2;PMS_P1;PMS_P2;Temp;Humidity;BMP_temperature;BMP_pressure;BME280_temperature;BME280_humidity;BME280_pressure;Samples;Min_cycle;Max_cycle;Signal;HPM_P1;HPM_P2
2021/11/30 00:01:13;;;;;;;4.95;2.50;;;;;;;-0.51;67.99;92422.53;2067602;69;20152;-70
2021/11/30 00:03:40;;;;;;;4.38;2.80;;;;;;;-0.39;67.46;92413.94;2068069;69;20156;-72
2021/11/30 00:06:07;;;;;;;4.43;2.63;;;;;;;-0.48;67.82;92420.72;2067937;69;20143;-67
2021/11/30 00:08:34;;;;;;;6.05;3.40;;;;;;;-0.47;68.08;92427.72;2067957;69;20187;-73
2021/11/30 00:11:02;;;;;;;6.38;4.00;;;;;;;-0.53;68.26;92429.91;2067813;69;20152;-71
2021/11/30 00:13:29;;;;;;;6.78;3.75;;;;;;;-0.66;69.16;92427.25;2067948;69;20251;-70
2021/11/30 00:15:56;;;;;;;5.50;3.78;;;;;;;-0.60;69.40;92433.38;2068161;69;20292;-74
2021/11/30 00:18:24;;;;;;;6.32;3.67;;;;;;;-0.41;68.61;92428.31;2068363;69;20245;-74
2021/11/30 00:20:51;;;;;;;7.13;3.38;;;;;;;-0.33;67.96;92423.53;2068486;69;20132;-77
2021/11/30 00:23:17;;;;;;;5.40;3.10;;;;;;;-0.23;67.77;92428.56;2067888;69;20206;-72
2021/11/30 00:25:43;;;;;;;4.78;3.03;;;;;;;-0.49;68.21;92430.31;2068443;69;20694;-71
2021/11/30 00:28:09;;;;;;;3.78;2.60;;;;;;;-0.58;68.21;92430.81;2068472;69;20210;-69
2021/11/30 00:30:36;;;;;;;3.30;2.40;;;;;;;-0.44;67.39;92431.44;2068408;69;20133;-70
2021/11/30 00:33:03;;;;;;;5.97;3.00;;;;;;;-0.47;67.48;92427.72;2067857;69;20232;-72
2021/11/30 00:35:30;;;;;;;4.97;2.58;;;;;;;-0.37;67.43;92428.69;2068338;69;20152;-74
2021/11/30 00:37:56;;;;;;;8.00;3.20;;;;;;;-0.30;67.03;92413.41;2068433;69;20148;-71
2021/11/30 00:40:22;;;;;;;7.70;3.15;;;;;;;-0.79;67.77;92415.03;2068470;69;20247;-70
2021/11/30 00:42:48;;;;;;;5.13;2.78;;;;;;;-0.93;68.76;92412.91;2068529;69;20125;-72
2021/11/30 00:45:17;;;;;;;4.35;2.65;;;;;;;-0.74;68.32;92432.75;2068366;69;20164;-76
2021/11/30 00:47:49;;;;;;;4.40;2.50;;;;;;;-0.55;67.15;92443.53;2068466;69;20227;-78
2021/11/30 00:50:15;;;;;;;4.10;2.90;;;;;;;-0.34;67.04;92446.22;2068292;69;20642;-77
2021/11/30 00:52:41;;;;;;;7.35;2.92;;;;;;;-0.42;67.46;92448.22;2068452;69;20137;-78
2021/11/30 00:55:07;;;;;;;6.78;3.03;;;;;;;-0.54;67.58;92447.81;2068397;69;20173;-70
2021/11/30 00:57:39;;;;;;;5.05;2.90;;;;;;;-0.57;67.14;92454.41;2068418;69;20183;-72
2021/11/30 01:00:10;;;;;;;7.75;3.22;;;;;;;-0.42;67.24;92457.25;2068541;69;20144;-73
2021/11/30 01:02:36;;;;;;;5.30;3.10;;;;;;;-0.22;67.14;92463.25;2067860;69;20148;-69
2021/11/30 01:05:04;;;;;;;5.65;3.15;;;;;;;-0.37;67.52;92461.88;2068285;69;20144;-71
2021/11/30 01:07:30;;;;;;;5.50;3.17;;;;;;;-0.21;67.05;92459.19;2068493;69;20171;-71
2021/11/30 01:09:56;;;;;;;5.05;3.00;;;;;;;-0.15;66.99;92468.06;2068402;69;20597;-69
2021/11/30 01:12:21;;;;;;;4.63;2.90;;;;;;;-0.55;68.23;92463.66;2068337;69;20683;-69
2021/11/30 01:14:47;;;;;;;5.93;3.67;;;;;;;-0.26;67.48;92461.56;2068473;69;20156;-72
2021/11/30 01:17:13;;;;;;;4.35;2.88;;;;;;;-0.31;68.04;92470.78;2068489;69;20125;-78
2021/11/30 01:19:38;;;;;;;5.15;3.10;;;;;;;-0.27;68.12;92473.94;2068279;69;20218;-75
2021/11/30 01:22:05;;;;;;;5.07;3.00;;;;;;;-0.23;68.38;92483.88;2068308;69;20144;-77
2021/11/30 01:24:31;;;;;;;4.13;2.40;;;;;;;-0.07;67.07;92479.91;2068347;69;20679;-74
2021/11/30 01:26:56;;;;;;;4.10;2.38;;;;;;;-0.07;67.53;92474.38;2065045;69;20148;-75
2021/11/30 01:29:22;;;;;;;5.65;2.80;;;;;;;-0.13;67.91;92477.31;2068481;69;20257;-73
2021/11/30 01:31:47;;;;;;;5.40;2.45;;;;;;;-0.06;67.36;92467.56;2068472;69;20479;-75
2021/11/30 01:34:13;;;;;;;4.70;2.83;;;;;;;-0.24;66.67;92458.25;2068222;69;20140;-75
2021/11/30 01:36:39;;;;;;;5.40;2.90;;;;;;;-0.17;66.63;92456.81;2068394;69;20156;-70
2021/11/30 01:39:05;;;;;;;5.93;2.78;;;;;;;-0.26;67.02;92453.28;2068323;69;20206;-72
2021/11/30 01:41:34;;;;;;;5.60;2.70;;;;;;;-0.13;66.40;92457.22;2068451;69;20137;-75
2021/11/30 01:44:03;;;;;;;4.05;2.63;;;;;;;-0.07;66.57;92466.81;2068332;69;20152;-72
2021/11/30 01:46:40;;;;;;;3.70;2.45;;;;;;;-0.05;66.47;92466.25;2068419;69;20156;-69
2021/11/30 01:49:23;;;;;;;4.07;2.47;;;;;;;0.03;66.63;92471.81;2062614;69;20582;-69
2021/11/30 01:51:48;;;;;;;;;;;;;;;-0.01;67.04;92474.94;2068580;69;20211;-74
2021/11/30 01:54:14;;;;;;;4.78;2.83;;;;;;;-0.46;68.58;92487.28;2068406;69;20049;-71
2021/11/30 01:56:40;;;;;;;5.88;3.00;;;;;;;-0.18;68.00;92496.81;2068300;69;20160;-74
2021/11/30 01:59:05;;;;;;;6.10;3.50;;;;;;;-0.08;67.47;92506.13;2068274;69;20235;-76
2021/11/30 02:01:31;;;;;;;4.95;2.90;;;;;;;-0.09;67.65;92494.31;2069535;69;20602;-77
2021/11/30 02:03:57;;;;;;;5.53;3.10;;;;;;;-0.19;67.28;92500.88;2071467;69;20223;-75
2021/11/30 02:06:23;;;;;;;4.30;2.90;;;;;;;-0.22;67.29;92499.22;2071613;69;20210;-75
2021/11/30 02:08:48;;;;;;;5.18;2.80;;;;;;;-0.17;66.95;92499.06;2071736;69;20136;-74
2021/11/30 02:11:14;;;;;;;6.38;2.83;;;;;;;-0.11;66.31;92496.88;2068255;69;20230;-75
2021/11/30 02:13:39;;;;;;;5.13;2.92;;;;;;;-0.06;66.12;92487.66;2071618;69;20586;-74
2021/11/30 02:16:08;;;;;;;5.35;2.85;;;;;;;-0.06;66.53;92486.94;2071663;69;20149;-72
2021/11/30 02:18:39;;;;;;;6.60;2.90;;;;;;;0.07;66.39;92480.53;2071494;69;20214;-75
2021/11/30 02:21:07;;;;;;;6.00;2.97;;;;;;;-0.06;65.77;92484.88;2071577;69;20515;-71
2021/11/30 02:26:07;;;;;;;4.15;2.88;;;;;;;0.03;65.70;92488.44;2071761;69;20143;-73
2021/11/30 02:28:33;;;;;;;4.65;2.75;;;;;;;0.06;65.98;92485.31;2071671;69;20171;-67
2021/11/30 02:30:59;;;;;;;5.80;2.88;;;;;;;0.05;66.63;92477.56;2071575;69;20530;-69
2021/11/30 02:33:25;;;;;;;5.25;2.90;;;;;;;0.06;66.59;92495.66;2071619;69;20180;-74
2021/11/30 02:35:52;;;;;;;5.03;2.80;;;;;;;-0.08;67.97;92493.00;2072244;69;20147;-77
2021/11/30 02:38:17;;;;;;;4.93;2.60;;;;;;;0.05;67.32;92494.91;2072212;69;20530;-71
2021/11/30 02:40:43;;;;;;;3.55;2.22;;;;;;;0.19;66.37;92489.97;2072115;69;20132;-73
2021/11/30 02:43:09;;;;;;;4.18;2.38;;;;;;;0.16;66.74;92491.81;2072166;69;20145;-73
2021/11/30 02:45:35;;;;;;;4.85;2.50;;;;;;;-0.17;67.08;92495.56;2072021;69;20140;-69
2021/11/30 02:48:02;;;;;;;4.05;2.72;;;;;;;-0.24;67.85;92496.25;2072086;69;20598;-69
2021/11/30 02:50:28;;;;;;;4.55;3.08;;;;;;;0.07;66.84;92494.34;2071953;69;20239;-69
2021/11/30 02:52:55;;;;;;;5.15;3.00;;;;;;;0.12;66.29;92494.19;2072059;69;20164;-70
2021/11/30 02:55:22;;;;;;;7.20;3.08;;;;;;;0.11;67.22;92501.03;2068686;69;20619;-70
2021/11/30 02:57:48;;;;;;;5.47;2.88;;;;;;;0.12;67.37;92493.44;2072086;69;20602;-71
2021/11/30 03:00:14;;;;;;;6.57;2.38;;;;;;;0.18;67.15;92507.84;2071978;69;20156;-71
2021/11/30 03:02:39;;;;;;;6.18;2.80;;;;;;;0.04;67.71;92518.31;2072077;69;20146;-70
2021/11/30 03:05:06;;;;;;;3.78;2.55;;;;;;;0.14;67.45;92516.53;2068612;69;20151;-69
2021/11/30 03:07:38;;;;;;;4.60;2.65;;;;;;;0.22;66.83;92505.47;2071941;69;20603;-71
2021/11/30 03:10:19;;;;;;;3.60;2.28;;;;;;;0.19;67.57;92510.09;2066050;69;20208;-70
2021/11/30 03:12:46;;;;;;;3.42;2.33;;;;;;;0.15;68.04;92508.97;2071985;69;20164;-71
2021/11/30 03:15:16;;;;;;;4.05;2.03;;;;;;;0.22;67.29;92506.22;2072020;69;20563;-73
2021/11/30 03:17:43;;;;;;;2.33;1.80;;;;;;;0.24;66.98;92503.66;2072221;69;20164;-73
2021/11/30 03:20:10;;;;;;;3.75;2.25;;;;;;;0.12;66.72;92510.81;2071873;69;20529;-71
2021/11/30 03:22:38;;;;;;;3.00;2.00;;;;;;;-0.10;67.02;92505.91;2071961;69;20164;-76
2021/11/30 03:25:04;;;;;;;4.82;2.22;;;;;;;0.20;66.24;92499.75;2068586;69;20242;-75
2021/11/30 03:27:29;;;;;;;2.63;1.90;;;;;;;0.24;66.57;92498.13;2072108;69;20147;-75
2021/11/30 03:29:55;;;;;;;4.18;2.25;;;;;;;0.15;66.58;92500.66;2071957;69;20148;-74
2021/11/30 03:35:02;;;;;;;5.13;2.33;;;;;;;0.27;65.56;92507.34;2068882;69;20148;-72
2021/11/30 03:37:27;;;;;;;2.58;1.90;;;;;;;0.17;66.03;92504.34;2071910;69;20172;-71
2021/11/30 03:39:53;;;;;;;3.58;1.92;;;;;;;0.36;66.11;92523.44;2072009;69;20231;-73
2021/11/30 03:42:19;;;;;;;4.07;2.15;;;;;;;0.26;65.89;92528.00;2071886;69;20610;-73
2021/11/30 03:44:45;;;;;;;4.95;2.28;;;;;;;0.33;65.91;92537.66;2071803;69;20140;-73
2021/11/30 03:47:11;;;;;;;2.90;2.10;;;;;;;0.32;65.95;92534.16;2071834;69;20148;-69
2021/11/30 03:49:36;;;;;;;3.88;2.40;;;;;;;0.13;65.42;92536.44;2071867;69;20148;-72
2021/11/30 03:52:03;;;;;;;3.20;1.92;;;;;;;0.22;65.35;92535.94;2071992;69;20227;-70
2021/11/30 03:54:29;;;;;;;4.55;2.30;;;;;;;0.28;64.93;92544.84;2071911;69;20136;-70
2021/11/30 03:56:56;;;;;;;4.50;2.10;;;;;;;0.33;65.50;92526.56;2071955;69;20628;-73
2021/11/30 03:59:22;;;;;;;4.40;2.22;;;;;;;0.29;66.10;92526.19;2071889;69;20144;-69
2021/11/30 04:01:48;;;;;;;3.85;2.20;;;;;;;0.29;66.37;92523.41;2071853;69;20156;-71
2021/11/30 04:04:20;;;;;;;3.05;1.95;;;;;;;0.29;66.51;92523.41;2071679;69;20530;-71
2021/11/30 04:06:48;;;;;;;3.38;1.92;;;;;;;0.33;66.17;92527.31;2071903;69;20656;-71
2021/11/30 04:09:13;;;;;;;3.63;2.20;;;;;;;0.31;66.51;92532.66;2071833;69;20251;-71
2021/11/30 04:11:40;;;;;;;4.35;2.00;;;;;;;0.31;66.16;92538.19;2071857;69;20148;-75
2021/11/30 04:14:07;;;;;;;4.10;2.00;;;;;;;0.37;66.05;92527.69;2071820;69;20664;-71
2021/11/30 04:16:33;;;;;;;4.15;1.77;;;;;;;0.35;66.23;92535.06;2071877;69;20674;-69
2021/11/30 04:18:59;;;;;;;4.43;2.40;;;;;;;0.31;65.56;92543.72;2071725;69;20235;-69
2021/11/30 04:21:25;;;;;;;2.78;1.88;;;;;;;0.22;66.20;92539.44;2071910;69;20147;-68
2021/11/30 04:23:53;;;;;;;4.00;2.38;;;;;;;0.34;65.82;92544.66;2071759;69;20532;-71
2021/11/30 04:26:19;;;;;;;3.08;2.08;;;;;;;0.39;65.91;92538.22;2068488;69;20210;-68
2021/11/30 04:28:45;;;;;;;4.50;2.13;;;;;;;0.16;66.00;92530.56;2071795;69;20172;-70
2021/11/30 04:31:10;;;;;;;3.35;1.90;;;;;;;0.30;66.04;92535.97;2071797;69;20610;-70
2021/11/30 04:33:36;;;;;;;2.90;1.67;;;;;;;0.38;65.84;92537.47;2068370;69;20145;-69
2021/11/30 04:36:05;;;;;;;2.92;1.67;;;;;;;0.33;65.63;92527.31;2071788;69;20136;-74
2021/11/30 04:38:30;;;;;;;2.60;1.60;;;;;;;0.18;66.56;92527.25;2068540;69;20164;-73
2021/11/30 04:40:56;;;;;;;2.42;1.80;;;;;;;0.28;66.20;92530.25;2068458;69;20129;-73
2021/11/30 04:43:21;;;;;;;3.03;1.80;;;;;;;0.40;65.66;92531.38;2071824;69;20295;-71
2021/11/30 04:48:16;;;;;;;3.40;1.90;;;;;;;0.34;66.10;92525.28;2071734;69;20147;-68
2021/11/30 04:50:45;;;;;;;2.55;1.60;;;;;;;0.33;66.08;92521.03;2071738;69;20144;-71
2021/11/30 04:53:10;;;;;;;3.10;1.58;;;;;;;0.25;66.53;92526.53;2071754;69;20239;-69
2021/11/30 04:55:36;;;;;;;3.08;1.77;;;;;;;0.16;66.70;92527.06;2071706;69;20224;-69
2021/11/30 04:58:05;;;;;;;2.88;1.65;;;;;;;0.28;66.47;92522.69;2071497;69;20136;-70
2021/11/30 05:00:33;;;;;;;21.52;7.70;;;;;;;0.21;67.02;92520.63;2071747;69;20140;-69
2021/11/30 05:02:59;;;;;;;11.32;4.60;;;;;;;0.24;66.51;92530.59;2071765;69;20160;-70
2021/11/30 05:05:25;;;;;;;16.95;6.28;;;;;;;0.20;66.65;92527.44;2071573;69;20251;-73
2021/11/30 05:07:50;;;;;;;13.15;4.75;;;;;;;0.22;66.73;92524.84;2071881;69;20176;-70
2021/11/30 05:10:19;;;;;;;11.40;5.35;;;;;;;0.27;66.63;92528.75;2071698;69;20174;-70
2021/11/30 05:12:46;;;;;;;15.63;6.05;;;;;;;0.23;66.92;92523.59;2071743;69;20166;-69
2021/11/30 05:15:12;;;;;;;12.55;5.90;;;;;;;0.26;66.89;92522.47;2071740;69;20167;-70
2021/11/30 05:17:39;;;;;;;12.07;5.45;;;;;;;0.26;66.88;92519.72;2071780;69;20195;-72
2021/11/30 05:20:05;;;;;;;12.10;5.35;;;;;;;0.35;66.98;92521.22;2071630;69;20172;-72
2021/11/30 05:22:32;;;;;;;10.35;4.55;;;;;;;0.28;67.34;92528.22;2071640;69;20555;-70
2021/11/30 05:24:58;;;;;;;7.75;3.58;;;;;;;0.31;67.04;92526.38;2071675;69;20152;-71
2021/11/30 05:27:23;;;;;;;5.97;3.03;;;;;;;0.28;67.38;92528.22;2071684;69;20167;-71
2021/11/30 05:29:49;;;;;;;3.85;1.98;;;;;;;0.41;66.42;92527.31;2071649;69;20140;-69
2021/11/30 05:32:15;;;;;;;3.55;1.90;;;;;;;0.42;66.03;92531.59;2071775;69;20191;-69
2021/11/30 05:34:41;;;;;;;3.35;2.10;;;;;;;0.38;65.95;92537.47;2071507;69;20583;-70
2021/11/30 05:37:06;;;;;;;16.80;7.65;;;;;;;-0.60;69.93;92549.50;2071780;69;20146;-69
2021/11/30 05:39:32;;;;;;;10.95;5.30;;;;;;;-0.41;70.12;92552.78;2068266;69;20487;-73
2021/11/30 05:41:57;;;;;;;30.38;12.57;;;;;;;0.03;68.22;92541.03;2071668;69;20172;-76
2021/11/30 05:44:24;;;;;;;20.55;8.98;;;;;;;0.17;67.55;92539.59;2071603;69;20183;-73
2021/11/30 05:46:50;;;;;;;10.32;5.50;;;;;;;0.17;67.14;92547.91;2071750;69;20235;-75
2021/11/30 05:49:16;;;;;;;9.95;4.90;;;;;;;0.18;67.39;92549.38;2068322;69;20251;-72
2021/11/30 05:51:42;;;;;;;5.20;2.95;;;;;;;-0.20;67.71;92538.13;2071784;69;20151;-71
2021/11/30 05:54:08;;;;;;;6.55;3.05;;;;;;;0.05;67.34;92541.97;2071772;69;20205;-70
2021/11/30 05:56:33;;;;;;;6.75;3.00;;;;;;;0.18;66.58;92554.91;2071613;69;20151;-73
2021/11/30 05:58:59;;;;;;;7.00;3.65;;;;;;;0.18;66.90;92550.16;2071564;69;20231;-72
2021/11/30 06:01:31;;;;;;;6.05;3.13;;;;;;;0.14;66.89;92554.56;2071587;69;20179;-73
2021/11/30 06:03:58;;;;;;;5.23;2.97;;;;;;;-0.16;67.88;92569.72;2071613;69;20149;-71
2021/11/30 06:06:33;;;;;;;5.40;2.00;;;;;;;-0.02;67.63;92553.72;2071652;69;20163;-69
2021/11/30 06:09:00;;;;;;;5.65;2.72;;;;;;;-0.28;67.24;92569.25;2071796;69;20144;-68
2021/11/30 06:11:26;;;;;;;4.10;2.53;;;;;;;0.05;66.53;92561.34;2072216;69;20144;-69
2021/11/30 06:13:52;;;;;;;3.30;2.00;;;;;;;0.03;67.04;92557.63;2072204;69;20150;-68
2021/11/30 06:16:18;;;;;;;3.45;2.03;;;;;;;0.15;66.53;92558.81;2072078;69;20613;-73
2021/11/30 06:18:44;;;;;;;2.97;1.75;;;;;;;0.11;67.02;92566.72;2072097;69;20168;-75
2021/11/30 06:21:11;;;;;;;4.68;2.33;;;;;;;0.20;65.99;92564.19;2072076;69;20147;-73
2021/11/30 06:23:39;;;;;;;4.10;1.92;;;;;;;0.00;67.42;92576.09;2072084;69;20227;-72
2021/11/30 06:26:06;;;;;;;3.03;1.80;;;;;;;0.13;67.09;92564.13;2072152;69;20194;-70
2021/11/30 06:28:31;;;;;;;3.33;2.05;;;;;;;0.21;66.29;92545.53;2072043;69;20205;-71
2021/11/30 06:30:57;;;;;;;3.42;2.05;;;;;;;0.18;66.06;92555.69;2072065;69;20156;-71
2021/11/30 06:33:23;;;;;;;4.57;2.10;;;;;;;0.12;65.17;92551.59;2068580;69;20168;-74
2021/11/30 06:35:48;;;;;;;4.28;1.92;;;;;;;0.24;65.13;92561.06;2072040;69;20132;-68
2021/11/30 06:38:14;;;;;;;1.88;1.63;;;;;;;0.30;65.67;92558.13;2072017;69;20208;-73
2021/11/30 06:40:40;;;;;;;3.75;1.80;;;;;;;0.23;66.64;92567.91;2072017;69;20136;-69
2021/11/30 06:43:05;;;;;;;3.60;1.67;;;;;;;0.32;66.01;92561.06;2072077;69;20206;-69
2021/11/30 06:45:31;;;;;;;2.58;1.60;;;;;;;0.19;66.77;92575.81;2071989;69;20168;-70
2021/11/30 06:47:56;;;;;;;3.67;2.40;;;;;;;0.11;66.52;92578.53;2072006;69;20140;-69
2021/11/30 06:50:22;;;;;;;2.63;2.08;;;;;;;0.19;66.76;92576.53;2071874;69;20143;-73
2021/11/30 06:52:49;;;;;;;4.28;1.77;;;;;;;0.32;66.61;92574.91;2072002;69;20140;-68
2021/11/30 06:55:14;;;;;;;3.05;2.03;;;;;;;0.23;66.63;92573.44;2068647;69;20241;-70
2021/11/30 06:57:41;;;;;;;4.93;2.03;;;;;;;0.31;65.83;92573.44;2072098;69;20575;-69
2021/11/30 07:00:10;;;;;;;5.22;2.88;;;;;;;0.31;65.16;92571.41;2071977;69;20147;-70
2021/11/30 07:02:36;;;;;;;4.20;2.20;;;;;;;-0.07;66.93;92588.59;2072019;69;20136;-69
2021/11/30 07:05:16;;;;;;;12.45;4.43;;;;;;;0.10;66.38;92588.13;2071825;69;20545;-73
2021/11/30 07:10:44;;;;;;;5.47;2.72;;;;;;;0.12;65.81;92577.22;2065334;69;20214;-68
2021/11/30 07:13:22;;;;;;;7.20;3.72;;;;;;;-0.15;66.78;92590.56;2071952;69;20144;-68
2021/11/30 07:16:06;;;;;;;8.52;3.70;;;;;;;0.16;66.34;92588.69;2071950;69;20144;-68
2021/11/30 07:18:33;;;;;;;5.80;3.53;;;;;;;0.20;66.21;92585.59;2071919;69;20219;-69
2021/11/30 07:21:00;;;;;;;4.80;2.30;;;;;;;0.39;66.13;92582.53;2071725;69;20132;-70
2021/11/30 07:23:26;;;;;;;3.10;2.00;;;;;;;0.23;65.25;92578.97;2071926;69;20145;-72
2021/11/30 07:25:53;;;;;;;2.20;1.67;;;;;;;-0.21;64.23;92586.47;2072123;69;20148;-70
2021/11/30 07:28:25;;;;;;;6.00;3.20;;;;;;;-0.22;66.35;92587.75;2071877;69;20148;-69
2021/11/30 07:30:51;;;;;;;8.52;3.92;;;;;;;0.16;66.14;92583.16;2071890;69;20155;-69
2021/11/30 07:33:16;;;;;;;5.25;3.13;;;;;;;0.50;65.47;92590.50;2071919;69;20144;-67
2021/11/30 07:35:42;;;;;;;5.03;2.40;;;;;;;0.64;65.60;92594.63;2071811;69;20611;-74
2021/11/30 07:38:08;;;;;;;5.53;3.45;;;;;;;0.51;65.45;92608.63;2068714;69;20132;-73
2021/11/30 07:40:34;;;;;;;5.72;2.17;;;;;;;0.58;65.58;92610.66;2071927;69;20568;-69
2021/11/30 07:42:59;;;;;;;12.77;7.40;;;;;;;0.54;65.87;92606.78;2071904;69;20591;-69
2021/11/30 07:45:25;;;;;;;7.63;4.60;;;;;;;0.42;65.26;92606.38;2071847;69;20161;-71
2021/11/30 07:47:51;;;;;;;5.63;3.20;;;;;;;0.47;64.78;92600.66;2072017;69;20180;-69
2021/11/30 07:50:16;;;;;;;7.85;2.97;;;;;;;0.95;64.22;92600.25;2071771;69;20131;-73
2021/11/30 07:52:43;;;;;;;6.40;3.65;;;;;;;0.53;64.11;92594.94;2071876;69;20148;-69
2021/11/30 07:55:13;;;;;;;6.45;3.38;;;;;;;0.73;64.48;92583.03;2071809;69;20144;-69
2021/11/30 07:57:39;;;;;;;4.47;2.50;;;;;;;0.93;64.33;92592.50;2071837;69;20144;-70
2021/11/30 08:00:07;;;;;;;3.55;2.03;;;;;;;0.79;63.67;92596.72;2071946;69;20531;-73
2021/11/30 08:02:37;;;;;;;3.03;2.00;;;;;;;0.84;63.60;92595.78;2071914;69;20170;-70
2021/11/30 08:05:04;;;;;;;2.78;1.77;;;;;;;0.78;64.14;92589.69;2071727;69;20175;-69
2021/11/30 08:07:30;;;;;;;4.93;2.40;;;;;;;0.47;63.74;92594.38;2071876;69;20148;-69
2021/11/30 08:09:56;;;;;;;4.57;2.03;;;;;;;0.74;64.14;92605.94;2072135;69;20155;-73
2021/11/30 08:12:21;;;;;;;3.38;2.10;;;;;;;0.97;62.79;92597.69;2071825;69;20205;-69
2021/11/30 08:14:47;;;;;;;3.42;2.10;;;;;;;1.18;63.26;92591.97;2071830;69;20143;-69
2021/11/30 08:17:13;;;;;;;3.92;1.65;;;;;;;1.15;62.28;92596.59;2068655;69;20137;-69
2021/11/30 08:19:43;;;;;;;4.18;1.92;;;;;;;1.04;63.23;92588.63;2071722;69;20245;-69
2021/11/30 08:22:10;;;;;;;2.72;1.80;;;;;;;1.41;61.77;92573.31;2071787;69;20239;-69
2021/11/30 08:24:36;;;;;;;2.22;1.50;;;;;;;1.50;62.63;92577.56;2071908;69;20209;-69
2021/11/30 08:27:04;;;;;;;2.08;1.45;;;;;;;1.56;63.15;92586.47;2071779;69;20211;-69
2021/11/30 08:29:32;;;;;;;1.90;1.60;;;;;;;1.55;63.61;92579.41;2071769;69;20635;-69
2021/11/30 08:31:58;;;;;;;1.38;1.00;;;;;;;1.49;63.85;92578.88;2071725;69;20164;-69
2021/11/30 08:34:25;;;;;;;3.03;2.10;;;;;;;1.10;61.58;92569.78;2071662;69;20163;-69
2021/11/30 08:36:50;;;;;;;1.70;1.17;;;;;;;1.51;63.55;92577.03;2071910;69;20588;-72
2021/11/30 08:39:16;;;;;;;2.97;1.40;;;;;;;1.57;63.35;92576.09;2071758;69;20144;-72
2021/11/30 08:41:42;;;;;;;3.30;1.75;;;;;;;1.67;63.27;92585.34;2071794;69;20267;-72
2021/11/30 08:44:08;;;;;;;2.97;1.80;;;;;;;1.59;64.38;92588.09;2071755;69;20143;-69
2021/11/30 08:46:34;;;;;;;2.83;1.30;;;;;;;1.77;64.05;92581.44;2071797;69;20152;-68
2021/11/30 08:48:59;;;;;;;1.10;0.90;;;;;;;1.83;63.75;92580.50;2072865;69;20266;-70
2021/11/30 08:51:25;;;;;;;1.88;1.27;;;;;;;1.77;64.60;92578.66;2073302;69;20147;-73
2021/11/30 08:53:51;;;;;;;1.30;1.10;;;;;;;1.91;64.70;92581.25;2073190;69;20703;-68
2021/11/30 08:56:17;;;;;;;4.55;1.13;;;;;;;1.83;64.40;92578.47;2072503;69;20198;-70
2021/11/30 08:58:42;;;;;;;8.77;2.80;;;;;;;1.48;64.76;92586.47;2073380;69;20171;-67
2021/11/30 09:01:08;;;;;;;6.45;3.30;;;;;;;1.85;64.36;92578.66;2073968;69;20136;-68
2021/11/30 09:03:34;;;;;;;4.80;3.38;;;;;;;2.02;64.31;92578.09;2069035;69;20251;-66
2021/11/30 09:06:00;;;;;;;4.43;3.10;;;;;;;1.97;63.25;92579.75;2071396;69;20144;-67
2021/11/30 09:08:26;;;;;;;6.35;2.90;;;;;;;1.90;63.82;92585.31;2072567;69;20148;-68
2021/11/30 09:10:52;;;;;;;10.05;3.90;;;;;;;2.08;63.49;92584.16;2072504;69;20156;-70
2021/11/30 09:13:18;;;;;;;6.68;3.28;;;;;;;2.15;63.77;92585.44;2068537;69;20148;-67
2021/11/30 09:15:44;;;;;;;8.15;3.50;;;;;;;2.10;63.50;92583.59;2071700;69;20356;-67
2021/11/30 09:18:10;;;;;;;12.65;3.55;;;;;;;2.19;63.58;92580.25;2071608;69;20582;-70
2021/11/30 09:20:36;;;;;;;7.70;2.92;;;;;;;2.18;63.51;92571.19;2071430;69;20183;-75
2021/11/30 09:23:03;;;;;;;5.07;2.72;;;;;;;2.09;63.46;92580.09;2073305;69;20155;-73
2021/11/30 09:25:31;;;;;;;5.65;3.20;;;;;;;2.17;63.07;92582.84;2074540;69;20584;-74
2021/11/30 09:27:58;;;;;;;6.05;2.78;;;;;;;2.28;63.70;92574.13;2074794;69;20154;-69
2021/11/30 09:30:25;;;;;;;5.00;3.13;;;;;;;2.25;64.34;92572.47;2074661;69;20140;-70
2021/11/30 09:32:51;;;;;;;4.63;2.92;;;;;;;1.72;66.56;92576.81;2074808;69;20155;-69
2021/11/30 09:35:21;;;;;;;12.25;3.42;;;;;;;1.99;65.74;92582.72;2072970;69;20159;-72
2021/11/30 09:37:50;;;;;;;11.27;4.43;;;;;;;1.79;65.28;92580.91;2071387;69;20172;-71
2021/11/30 09:40:20;;;;;;;9.52;3.80;;;;;;;2.10;64.25;92584.34;2071664;69;20155;-68
2021/11/30 09:42:48;;;;;;;8.15;4.05;;;;;;;2.19;63.66;92580.25;2071617;69;20318;-68
2021/11/30 09:45:14;;;;;;;7.63;3.65;;;;;;;2.29;63.40;92572.81;2068612;69;20596;-72
2021/11/30 09:47:42;;;;;;;8.15;3.97;;;;;;;2.37;63.37;92575.56;2072055;69;20148;-69
2021/11/30 09:50:13;;;;;;;7.45;3.72;;;;;;;2.44;63.77;92569.25;2072013;69;20147;-69
2021/11/30 09:52:38;;;;;;;7.03;3.85;;;;;;;2.40;64.21;92568.91;2068684;69;20241;-68
2021/11/30 09:55:07;;;;;;;7.35;3.20;;;;;;;2.44;63.42;92567.22;2072024;69;20231;-67
2021/11/30 09:57:34;;;;;;;8.90;3.50;;;;;;;2.39;63.30;92564.66;2072092;69;20137;-69
2021/11/30 10:00:00;;;;;;;7.60;3.55;;;;;;;2.30;63.28;92560.41;2071960;69;20227;-69
2021/11/30 10:02:25;;;;;;;14.45;3.55;;;;;;;2.19;63.09;92536.53;2067872;69;20184;-69
2021/11/30 10:04:51;;;;;;;6.00;3.50;;;;;;;2.35;63.36;92540.03;2068325;69;20144;-68
2021/11/30 10:07:34;;;;;;;13.15;6.13;;;;;;;2.47;63.31;92540.34;2068018;69;20164;-69
2021/11/30 10:10:15;;;;;;;14.27;6.90;;;;;;;2.49;63.06;92543.31;2068688;69;20149;-72
2021/11/30 10:12:42;;;;;;;15.27;5.85;;;;;;;2.57;63.33;92541.22;2068798;69;20614;-69
2021/11/30 10:15:11;;;;;;;12.73;4.57;;;;;;;2.67;62.50;92552.50;2068608;69;20287;-73
2021/11/30 10:17:37;;;;;;;10.38;4.60;;;;;;;2.64;62.91;92546.00;2068536;69;20247;-68
2021/11/30 10:20:12;;;;;;;11.77;5.43;;;;;;;2.73;62.93;92556.53;2067988;69;20176;-68
2021/11/30 10:22:43;;;;;;;11.75;6.00;;;;;;;2.63;62.78;92544.53;2068650;69;20177;-69
2021/11/30 10:25:34;;;;;;;13.32;5.70;;;;;;;2.72;63.06;92532.06;2068469;69;20508;-74
2021/11/30 10:28:07;;;;;;;23.45;5.72;;;;;;;2.72;62.28;92543.19;2068598;69;20141;-72
2021/11/30 10:30:36;;;;;;;27.90;9.90;;;;;;;2.72;62.22;92526.50;2068378;69;20247;-72
2021/11/30 10:33:05;;;;;;;30.10;10.07;;;;;;;2.47;62.37;92516.06;2068004;69;20156;-72
2021/11/30 10:35:31;;;;;;;22.88;9.23;;;;;;;2.58;62.51;92520.47;2068340;69;20176;-70
2021/11/30 10:37:59;;;;;;;17.25;9.13;;;;;;;2.65;62.24;92511.34;2068526;69;20608;-71
2021/11/30 10:40:27;;;;;;;20.75;8.73;;;;;;;2.74;62.53;92515.56;2068584;69;20144;-69
2021/11/30 10:42:58;;;;;;;19.50;8.93;;;;;;;2.75;62.89;92512.22;2068543;69;20153;-71
2021/11/30 10:45:27;;;;;;;19.60;8.90;;;;;;;2.74;62.91;92507.22;2068480;69;20622;-69
2021/11/30 10:47:53;;;;;;;21.63;8.43;;;;;;;2.85;63.04;92495.69;2068000;69;20202;-69
2021/11/30 10:50:24;;;;;;;17.17;9.07;;;;;;;2.85;63.22;92486.59;2068420;69;20541;-68
2021/11/30 10:52:53;;;;;;;17.77;8.73;;;;;;;2.87;64.10;92492.31;2068536;69;20170;-71
2021/11/30 10:55:19;;;;;;;14.85;6.10;;;;;;;2.91;64.15;92489.88;2068468;69;20154;-69
2021/11/30 10:57:53;;;;;;;12.93;6.15;;;;;;;2.95;64.06;92499.31;2068548;69;20251;-69
2021/11/30 11:00:29;;;;;;;9.10;4.53;;;;;;;2.89;64.34;92481.38;2068547;69;20136;-69
2021/11/30 11:03:10;;;;;;;27.63;8.35;;;;;;;2.42;63.88;92480.16;2071604;69;20156;-70
2021/11/30 11:05:38;;;;;;;15.77;6.28;;;;;;;2.62;64.33;92493.03;2065616;69;20141;-71
2021/11/30 11:08:22;;;;;;;8.98;4.57;;;;;;;2.67;64.24;92480.22;2068689;69;20584;-68
2021/11/30 11:10:57;;;;;;;6.72;3.03;;;;;;;2.60;64.15;92481.00;2072117;69;20172;-69
2021/11/30 11:13:42;;;;;;;7.45;3.45;;;;;;;2.75;63.53;92481.66;2071865;69;20168;-69
2021/11/30 11:16:18;;;;;;;21.83;7.45;;;;;;;2.75;64.61;92464.25;2071847;69;20239;-71
2021/11/30 11:18:44;;;;;;;4.15;2.28;;;;;;;2.78;64.54;92463.81;2071785;69;20597;-73
2021/11/30 11:21:13;;;;;;;2.88;1.50;;;;;;;2.71;64.98;92475.75;2071995;69;20156;-70
2021/11/30 11:23:42;;;;;;;2.78;1.52;;;;;;;2.74;65.06;92454.41;2071828;69;20144;-71
2021/11/30 11:26:39;;;;;;;3.83;1.70;;;;;;;2.75;64.89;92453.84;2068689;69;20132;-72
2021/11/30 11:29:26;;;;;;;2.33;1.58;;;;;;;2.66;65.66;92464.84;2068212;69;20163;-74
2021/11/30 11:31:55;;;;;;;4.00;1.90;;;;;;;2.73;65.40;92455.72;2071799;69;20147;-71
2021/11/30 11:34:25;;;;;;;2.60;1.70;;;;;;;2.79;65.56;92448.66;2071705;69;20209;-73
2021/11/30 11:36:52;;;;;;;2.45;1.70;;;;;;;2.76;65.67;92446.97;2071903;69;20159;-76
2021/11/30 11:39:20;;;;;;;5.20;3.25;;;;;;;2.64;65.59;92431.31;2071870;69;20133;-73
2021/11/30 11:41:52;;;;;;;4.10;3.03;;;;;;;2.55;66.49;92430.63;2071803;69;20178;-69
2021/11/30 11:44:19;;;;;;;9.48;7.10;;;;;;;2.66;66.21;92437.06;2071725;69;20289;-71
2021/11/30 11:46:48;;;;;;;3.15;2.30;;;;;;;2.60;65.42;92437.25;2071900;69;20148;-69
2021/11/30 11:49:18;;;;;;;4.97;3.20;;;;;;;2.25;67.89;92445.44;2071704;69;20214;-69
2021/11/30 11:51:47;;;;;;;10.90;3.92;;;;;;;2.63;67.02;92421.50;2071781;69;20244;-71